sensor_id;sensor_type;location;lat;lon;timestamp;P1;P2;P0
62591;PMS5003;48659;41.622;2.276;2023-12-20T00:01:00;45;40;
62591;PMS5003;48659;41.622;2.276;2023-12-20T00:03:28;52;41;
62591;PMS5003;48659;41.622;2.276;2023-12-20T00:05:55;51;41;
62591;PMS5003;48659;41.622;2.276;2023-12-20T00:08:23;37;32;
62591;PMS5003;48659;41.622;2.276;2023-12-20T00:11:09;42;37;
62591;PMS5003;48659;41.622;2.276;2023-12-20T00:13:37;40;33;
62591;PMS5003;48659;41.622;2.276;2023-12-20T00:16:05;37;34;
62591;PMS5003;48659;41.622;2.276;2023-12-20T00:18:32;40;34;
62591;PMS5003;48659;41.622;2.276;2023-12-20T00:20:59;41;34;
62591;PMS5003;48659;41.622;2.276;2023-12-20T00:23:27;51;41;
62591;PMS5003;48659;41.622;2.276;2023-12-20T00:25:54;41;39;
62591;PMS5003;48659;41.622;2.276;2023-12-20T00:28:21;42;32;
62591;PMS5003;48659;41.622;2.276;2023-12-20T00:30:56;47;38;
62591;PMS5003;48659;41.622;2.276;2023-12-20T00:33:24;36;29;
62591;PMS5003;48659;41.622;2.276;2023-12-20T00:35:56;38;33;
62591;PMS5003;48659;41.622;2.276;2023-12-20T00:38:24;41;33;
62591;PMS5003;48659;41.622;2.276;2023-12-20T00:40:52;31;31;
62591;PMS5003;48659;41.622;2.276;2023-12-20T00:43:19;40;35;
62591;PMS5003;48659;41.622;2.276;2023-12-20T00:45:57;41;33;
62591;PMS5003;48659;41.622;2.276;2023-12-20T00:48:24;39;35;
62591;PMS5003;48659;41.622;2.276;2023-12-20T00:50:52;37;35;
62591;PMS5003;48659;41.622;2.276;2023-12-20T00:53:20;45;38;
62591;PMS5003;48659;41.622;2.276;2023-12-20T00:55:57;44;37;
62591;PMS5003;48659;41.622;2.276;2023-12-20T00:58:24;36;31;
62591;PMS5003;48659;41.622;2.276;2023-12-20T01:01:00;40;36;
62591;PMS5003;48659;41.622;2.276;2023-12-20T01:03:28;34;34;
62591;PMS5003;48659;41.622;2.276;2023-12-20T01:05:56;37;31;
62591;PMS5003;48659;41.622;2.276;2023-12-20T01:08:23;41;38;
62591;PMS5003;48659;41.622;2.276;2023-12-20T01:10:51;41;36;
62591;PMS5003;48659;41.622;2.276;2023-12-20T01:13:19;43;35;
62591;PMS5003;48659;41.622;2.276;2023-12-20T01:15:46;47;38;
62591;PMS5003;48659;41.622;2.276;2023-12-20T01:18:14;38;35;
62591;PMS5003;48659;41.622;2.276;2023-12-20T01:20:42;42;37;
62591;PMS5003;48659;41.622;2.276;2023-12-20T01:23:09;39;37;
62591;PMS5003;48659;41.622;2.276;2023-12-20T01:25:37;38;38;
62591;PMS5003;48659;41.622;2.276;2023-12-20T01:28:04;39;37;
62591;PMS5003;48659;41.622;2.276;2023-12-20T01:30:33;44;36;
62591;PMS5003;48659;41.622;2.276;2023-12-20T01:33:02;40;35;
62591;PMS5003;48659;41.622;2.276;2023-12-20T01:35:29;44;36;
62591;PMS5003;48659;41.622;2.276;2023-12-20T01:37:56;47;42;
62591;PMS5003;48659;41.622;2.276;2023-12-20T01:40:24;37;30;
62591;PMS5003;48659;41.622;2.276;2023-12-20T01:42:58;40;35;
62591;PMS5003;48659;41.622;2.276;2023-12-20T01:45:25;44;33;
62591;PMS5003;48659;41.622;2.276;2023-12-20T01:47:57;44;37;
62591;PMS5003;48659;41.622;2.276;2023-12-20T01:50:26;43;37;
62591;PMS5003;48659;41.622;2.276;2023-12-20T01:52:55;35;32;
62591;PMS5003;48659;41.622;2.276;2023-12-20T01:55:26;39;37;
62591;PMS5003;48659;41.622;2.276;2023-12-20T01:57:57;36;34;
62591;PMS5003;48659;41.622;2.276;2023-12-20T02:00:26;44;37;
62591;PMS5003;48659;41.622;2.276;2023-12-20T02:02:54;43;36;
62591;PMS5003;48659;41.622;2.276;2023-12-20T02:05:22;39;33;
62591;PMS5003;48659;41.622;2.276;2023-12-20T02:07:52;40;39;
62591;PMS5003;48659;41.622;2.276;2023-12-20T02:10:19;43;36;
62591;PMS5003;48659;41.622;2.276;2023-12-20T02:12:47;43;36;
62591;PMS5003;48659;41.622;2.276;2023-12-20T02:15:15;34;31;
62591;PMS5003;48659;41.622;2.276;2023-12-20T02:17:42;44;38;
62591;PMS5003;48659;41.622;2.276;2023-12-20T02:20:10;39;35;
62591;PMS5003;48659;41.622;2.276;2023-12-20T02:22:38;50;44;
62591;PMS5003;48659;41.622;2.276;2023-12-20T02:25:06;42;36;
62591;PMS5003;48659;41.622;2.276;2023-12-20T02:27:34;45;37;
62591;PMS5003;48659;41.622;2.276;2023-12-20T02:30:02;45;39;
62591;PMS5003;48659;41.622;2.276;2023-12-20T02:32:30;50;43;
62591;PMS5003;48659;41.622;2.276;2023-12-20T02:34:57;42;37;
62591;PMS5003;48659;41.622;2.276;2023-12-20T02:37:25;53;43;
62591;PMS5003;48659;41.622;2.276;2023-12-20T02:39:52;39;36;
62591;PMS5003;48659;41.622;2.276;2023-12-20T02:42:20;42;36;
62591;PMS5003;48659;41.622;2.276;2023-12-20T02:44:57;45;40;
62591;PMS5003;48659;41.622;2.276;2023-12-20T02:47:24;47;39;
62591;PMS5003;48659;41.622;2.276;2023-12-20T02:49:51;39;34;
62591;PMS5003;48659;41.622;2.276;2023-12-20T02:52:18;43;39;
62591;PMS5003;48659;41.622;2.276;2023-12-20T02:54:46;31;28;
62591;PMS5003;48659;41.622;2.276;2023-12-20T02:57:14;32;30;
62591;PMS5003;48659;41.622;2.276;2023-12-20T02:59:41;35;32;
62591;PMS5003;48659;41.622;2.276;2023-12-20T03:02:08;33;30;
62591;PMS5003;48659;41.622;2.276;2023-12-20T03:04:36;40;35;
62591;PMS5003;48659;41.622;2.276;2023-12-20T03:07:03;37;34;
62591;PMS5003;48659;41.622;2.276;2023-12-20T03:09:31;44;35;
62591;PMS5003;48659;41.622;2.276;2023-12-20T03:11:58;50;37;
62591;PMS5003;48659;41.622;2.276;2023-12-20T03:14:25;42;36;
62591;PMS5003;48659;41.622;2.276;2023-12-20T03:17:00;34;31;
62591;PMS5003;48659;41.622;2.276;2023-12-20T03:19:27;32;28;
62591;PMS5003;48659;41.622;2.276;2023-12-20T03:21:54;31;27;
62591;PMS5003;48659;41.622;2.276;2023-12-20T03:24:21;32;30;
62591;PMS5003;48659;41.622;2.276;2023-12-20T03:26:48;41;33;
62591;PMS5003;48659;41.622;2.276;2023-12-20T03:29:16;32;31;
62591;PMS5003;48659;41.622;2.276;2023-12-20T03:31:43;33;30;
62591;PMS5003;48659;41.622;2.276;2023-12-20T03:34:10;34;32;
62591;PMS5003;48659;41.622;2.276;2023-12-20T03:36:38;36;32;
62591;PMS5003;48659;41.622;2.276;2023-12-20T03:39:05;34;31;
62591;PMS5003;48659;41.622;2.276;2023-12-20T03:41:33;32;29;
62591;PMS5003;48659;41.622;2.276;2023-12-20T03:44:01;36;35;
62591;PMS5003;48659;41.622;2.276;2023-12-20T03:46:28;31;25;
62591;PMS5003;48659;41.622;2.276;2023-12-20T03:48:55;36;30;
62591;PMS5003;48659;41.622;2.276;2023-12-20T03:51:22;36;31;
62591;PMS5003;48659;41.622;2.276;2023-12-20T03:53:51;32;26;
62591;PMS5003;48659;41.622;2.276;2023-12-20T03:56:18;30;29;
62591;PMS5003;48659;41.622;2.276;2023-12-20T03:58:46;27;27;
62591;PMS5003;48659;41.622;2.276;2023-12-20T04:01:13;34;29;
62591;PMS5003;48659;41.622;2.276;2023-12-20T04:03:41;33;28;
62591;PMS5003;48659;41.622;2.276;2023-12-20T04:06:08;28;24;
62591;PMS5003;48659;41.622;2.276;2023-12-20T04:08:36;31;28;
62591;PMS5003;48659;41.622;2.276;2023-12-20T04:11:03;32;26;
62591;PMS5003;48659;41.622;2.276;2023-12-20T04:13:30;29;28;
62591;PMS5003;48659;41.622;2.276;2023-12-20T04:15:58;33;28;
62591;PMS5003;48659;41.622;2.276;2023-12-20T04:18:25;27;25;
62591;PMS5003;48659;41.622;2.276;2023-12-20T04:20:58;33;26;
62591;PMS5003;48659;41.622;2.276;2023-12-20T04:23:25;35;29;
62591;PMS5003;48659;41.622;2.276;2023-12-20T04:25:56;32;26;
62591;PMS5003;48659;41.622;2.276;2023-12-20T04:28:23;32;27;
62591;PMS5003;48659;41.622;2.276;2023-12-20T04:30:50;33;31;
62591;PMS5003;48659;41.622;2.276;2023-12-20T04:33:17;35;32;
62591;PMS5003;48659;41.622;2.276;2023-12-20T04:35:44;39;36;
62591;PMS5003;48659;41.622;2.276;2023-12-20T04:38:12;39;36;
62591;PMS5003;48659;41.622;2.276;2023-12-20T04:40:39;33;32;
62591;PMS5003;48659;41.622;2.276;2023-12-20T04:43:07;34;34;
62591;PMS5003;48659;41.622;2.276;2023-12-20T04:45:35;41;33;
62591;PMS5003;48659;41.622;2.276;2023-12-20T04:48:02;30;27;
62591;PMS5003;48659;41.622;2.276;2023-12-20T04:50:30;37;34;
62591;PMS5003;48659;41.622;2.276;2023-12-20T04:52:58;37;31;
62591;PMS5003;48659;41.622;2.276;2023-12-20T04:55:25;46;38;
62591;PMS5003;48659;41.622;2.276;2023-12-20T04:57:56;38;31;
62591;PMS5003;48659;41.622;2.276;2023-12-20T05:00:24;41;37;
62591;PMS5003;48659;41.622;2.276;2023-12-20T05:02:51;49;42;
62591;PMS5003;48659;41.622;2.276;2023-12-20T05:05:18;52;42;
62591;PMS5003;48659;41.622;2.276;2023-12-20T05:07:45;48;42;
62591;PMS5003;48659;41.622;2.276;2023-12-20T05:10:13;53;46;
62591;PMS5003;48659;41.622;2.276;2023-12-20T05:12:41;49;47;
62591;PMS5003;48659;41.622;2.276;2023-12-20T05:15:08;52;45;
62591;PMS5003;48659;41.622;2.276;2023-12-20T05:17:36;45;40;
62591;PMS5003;48659;41.622;2.276;2023-12-20T05:20:03;44;43;
62591;PMS5003;48659;41.622;2.276;2023-12-20T05:22:32;47;43;
62591;PMS5003;48659;41.622;2.276;2023-12-20T05:24:59;51;42;
62591;PMS5003;48659;41.622;2.276;2023-12-20T05:27:26;50;38;
62591;PMS5003;48659;41.622;2.276;2023-12-20T05:29:56;51;42;
62591;PMS5003;48659;41.622;2.276;2023-12-20T05:32:23;44;36;
62591;PMS5003;48659;41.622;2.276;2023-12-20T05:34:51;41;38;
62591;PMS5003;48659;41.622;2.276;2023-12-20T05:37:18;45;38;
62591;PMS5003;48659;41.622;2.276;2023-12-20T05:39:45;48;39;
62591;PMS5003;48659;41.622;2.276;2023-12-20T05:42:12;50;42;
62591;PMS5003;48659;41.622;2.276;2023-12-20T05:44:40;51;42;
62591;PMS5003;48659;41.622;2.276;2023-12-20T05:47:07;48;42;
62591;PMS5003;48659;41.622;2.276;2023-12-20T05:49:35;51;45;
62591;PMS5003;48659;41.622;2.276;2023-12-20T05:52:03;51;42;
62591;PMS5003;48659;41.622;2.276;2023-12-20T05:54:30;43;39;
62591;PMS5003;48659;41.622;2.276;2023-12-20T05:56:57;45;38;
62591;PMS5003;48659;41.622;2.276;2023-12-20T05:59:25;45;41;
62591;PMS5003;48659;41.622;2.276;2023-12-20T06:01:58;45;42;
62591;PMS5003;48659;41.622;2.276;2023-12-20T06:04:26;48;44;
62591;PMS5003;48659;41.622;2.276;2023-12-20T06:06:56;47;39;
62591;PMS5003;48659;41.622;2.276;2023-12-20T06:09:24;48;42;
62591;PMS5003;48659;41.622;2.276;2023-12-20T06:11:53;43;40;
62591;PMS5003;48659;41.622;2.276;2023-12-20T06:14:20;48;43;
62591;PMS5003;48659;41.622;2.276;2023-12-20T06:16:53;57;50;
62591;PMS5003;48659;41.622;2.276;2023-12-20T06:19:20;46;43;
62591;PMS5003;48659;41.622;2.276;2023-12-20T06:21:57;54;42;
62591;PMS5003;48659;41.622;2.276;2023-12-20T06:24:25;55;51;
62591;PMS5003;48659;41.622;2.276;2023-12-20T06:26:57;50;43;
62591;PMS5003;48659;41.622;2.276;2023-12-20T06:29:25;48;39;
62591;PMS5003;48659;41.622;2.276;2023-12-20T06:31:57;53;40;
62591;PMS5003;48659;41.622;2.276;2023-12-20T06:34:24;44;42;
62591;PMS5003;48659;41.622;2.276;2023-12-20T06:36:56;52;46;
62591;PMS5003;48659;41.622;2.276;2023-12-20T06:39:23;51;48;
62591;PMS5003;48659;41.622;2.276;2023-12-20T06:41:50;51;44;
62591;PMS5003;48659;41.622;2.276;2023-12-20T06:44:17;47;41;
62591;PMS5003;48659;41.622;2.276;2023-12-20T06:46:45;49;46;
62591;PMS5003;48659;41.622;2.276;2023-12-20T06:49:13;45;40;
62591;PMS5003;48659;41.622;2.276;2023-12-20T06:51:40;51;40;
62591;PMS5003;48659;41.622;2.276;2023-12-20T06:54:08;42;35;
62591;PMS5003;48659;41.622;2.276;2023-12-20T06:56:36;58;45;
62591;PMS5003;48659;41.622;2.276;2023-12-20T06:59:03;52;44;
62591;PMS5003;48659;41.622;2.276;2023-12-20T07:01:30;49;43;
62591;PMS5003;48659;41.622;2.276;2023-12-20T07:03:58;55;48;
62591;PMS5003;48659;41.622;2.276;2023-12-20T07:06:25;56;44;
62591;PMS5003;48659;41.622;2.276;2023-12-20T07:08:56;50;44;
62591;PMS5003;48659;41.622;2.276;2023-12-20T07:11:23;47;44;
62591;PMS5003;48659;41.622;2.276;2023-12-20T07:13:56;43;39;
62591;PMS5003;48659;41.622;2.276;2023-12-20T07:16:24;46;42;
62591;PMS5003;48659;41.622;2.276;2023-12-20T07:18:55;47;43;
62591;PMS5003;48659;41.622;2.276;2023-12-20T07:21:22;56;49;
62591;PMS5003;48659;41.622;2.276;2023-12-20T07:23:50;47;40;
62591;PMS5003;48659;41.622;2.276;2023-12-20T07:26:17;49;46;
62591;PMS5003;48659;41.622;2.276;2023-12-20T07:28:45;56;49;
62591;PMS5003;48659;41.622;2.276;2023-12-20T07:31:12;64;52;
62591;PMS5003;48659;41.622;2.276;2023-12-20T07:33:42;47;40;
62591;PMS5003;48659;41.622;2.276;2023-12-20T07:36:09;54;46;
62591;PMS5003;48659;41.622;2.276;2023-12-20T07:38:36;56;46;
62591;PMS5003;48659;41.622;2.276;2023-12-20T07:41:04;50;46;
62591;PMS5003;48659;41.622;2.276;2023-12-20T07:43:31;53;47;
62591;PMS5003;48659;41.622;2.276;2023-12-20T07:46:03;51;46;
62591;PMS5003;48659;41.622;2.276;2023-12-20T07:48:32;56;49;
62591;PMS5003;48659;41.622;2.276;2023-12-20T07:51:01;51;45;
62591;PMS5003;48659;41.622;2.276;2023-12-20T07:53:29;55;46;
62591;PMS5003;48659;41.622;2.276;2023-12-20T07:55:56;50;45;
62591;PMS5003;48659;41.622;2.276;2023-12-20T07:58:23;48;47;
62591;PMS5003;48659;41.622;2.276;2023-12-20T08:00:51;51;40;
62591;PMS5003;48659;41.622;2.276;2023-12-20T08:03:18;51;46;
62591;PMS5003;48659;41.622;2.276;2023-12-20T08:05:46;50;45;
62591;PMS5003;48659;41.622;2.276;2023-12-20T08:08:13;49;42;
62591;PMS5003;48659;41.622;2.276;2023-12-20T08:10:41;51;44;
62591;PMS5003;48659;41.622;2.276;2023-12-20T08:13:08;49;39;
62591;PMS5003;48659;41.622;2.276;2023-12-20T08:15:36;49;42;
62591;PMS5003;48659;41.622;2.276;2023-12-20T08:18:04;51;44;
62591;PMS5003;48659;41.622;2.276;2023-12-20T08:20:32;48;42;
62591;PMS5003;48659;41.622;2.276;2023-12-20T08:22:59;51;45;
62591;PMS5003;48659;41.622;2.276;2023-12-20T08:25:26;48;41;
62591;PMS5003;48659;41.622;2.276;2023-12-20T08:27:58;56;45;
62591;PMS5003;48659;41.622;2.276;2023-12-20T08:30:25;47;42;
62591;PMS5003;48659;41.622;2.276;2023-12-20T08:32:57;47;39;
62591;PMS5003;48659;41.622;2.276;2023-12-20T08:35:27;43;38;
62591;PMS5003;48659;41.622;2.276;2023-12-20T08:37:54;50;42;
62591;PMS5003;48659;41.622;2.276;2023-12-20T08:40:22;59;45;
62591;PMS5003;48659;41.622;2.276;2023-12-20T08:42:57;52;44;
62591;PMS5003;48659;41.622;2.276;2023-12-20T08:45:24;62;50;
62591;PMS5003;48659;41.622;2.276;2023-12-20T08:47:57;56;44;
62591;PMS5003;48659;41.622;2.276;2023-12-20T08:50:24;52;40;
62591;PMS5003;48659;41.622;2.276;2023-12-20T08:52:57;52;43;
62591;PMS5003;48659;41.622;2.276;2023-12-20T08:55:25;50;43;
62591;PMS5003;48659;41.622;2.276;2023-12-20T08:57:56;53;44;
62591;PMS5003;48659;41.622;2.276;2023-12-20T09:00:23;59;47;
62591;PMS5003;48659;41.622;2.276;2023-12-20T09:02:57;50;44;
62591;PMS5003;48659;41.622;2.276;2023-12-20T09:05:25;58;50;
62591;PMS5003;48659;41.622;2.276;2023-12-20T09:07:56;55;44;
62591;PMS5003;48659;41.622;2.276;2023-12-20T09:10:24;48;44;
62591;PMS5003;48659;41.622;2.276;2023-12-20T09:12:58;60;50;
62591;PMS5003;48659;41.622;2.276;2023-12-20T09:15:26;50;45;
62591;PMS5003;48659;41.622;2.276;2023-12-20T09:17:57;52;48;
62591;PMS5003;48659;41.622;2.276;2023-12-20T09:20:24;45;41;
62591;PMS5003;48659;41.622;2.276;2023-12-20T09:22:51;52;45;
62591;PMS5003;48659;41.622;2.276;2023-12-20T09:25:19;49;43;
62591;PMS5003;48659;41.622;2.276;2023-12-20T09:27:46;52;46;
62591;PMS5003;48659;41.622;2.276;2023-12-20T09:30:13;53;49;
62591;PMS5003;48659;41.622;2.276;2023-12-20T09:32:41;52;46;
62591;PMS5003;48659;41.622;2.276;2023-12-20T09:35:08;43;42;
62591;PMS5003;48659;41.622;2.276;2023-12-20T09:37:36;44;39;
62591;PMS5003;48659;41.622;2.276;2023-12-20T09:40:04;43;39;
62591;PMS5003;48659;41.622;2.276;2023-12-20T09:42:36;51;45;
62591;PMS5003;48659;41.622;2.276;2023-12-20T09:45:09;50;46;
62591;PMS5003;48659;41.622;2.276;2023-12-20T09:47:40;50;46;
62591;PMS5003;48659;41.622;2.276;2023-12-20T09:50:09;53;41;
62591;PMS5003;48659;41.622;2.276;2023-12-20T09:52:37;56;44;
62591;PMS5003;48659;41.622;2.276;2023-12-20T09:55:06;51;46;
62591;PMS5003;48659;41.622;2.276;2023-12-20T09:57:34;43;38;
62591;PMS5003;48659;41.622;2.276;2023-12-20T10:00:03;46;43;
62591;PMS5003;48659;41.622;2.276;2023-12-20T10:02:31;42;39;
62591;PMS5003;48659;41.622;2.276;2023-12-20T10:04:59;45;37;
62591;PMS5003;48659;41.622;2.276;2023-12-20T10:07:27;42;35;
62591;PMS5003;48659;41.622;2.276;2023-12-20T10:09:57;39;39;
62591;PMS5003;48659;41.622;2.276;2023-12-20T10:12:24;44;38;
62591;PMS5003;48659;41.622;2.276;2023-12-20T10:14:57;45;41;
62591;PMS5003;48659;41.622;2.276;2023-12-20T10:17:25;45;42;
62591;PMS5003;48659;41.622;2.276;2023-12-20T10:19:54;56;47;
62591;PMS5003;48659;41.622;2.276;2023-12-20T10:22:22;43;39;
62591;PMS5003;48659;41.622;2.276;2023-12-20T10:24:57;51;43;
62591;PMS5003;48659;41.622;2.276;2023-12-20T10:27:25;54;47;
62591;PMS5003;48659;41.622;2.276;2023-12-20T10:29:56;53;47;
62591;PMS5003;48659;41.622;2.276;2023-12-20T10:32:26;46;42;
62591;PMS5003;48659;41.622;2.276;2023-12-20T10:34:56;51;46;
62591;PMS5003;48659;41.622;2.276;2023-12-20T10:37:23;51;45;
62591;PMS5003;48659;41.622;2.276;2023-12-20T10:39:57;48;42;
62591;PMS5003;48659;41.622;2.276;2023-12-20T10:42:29;46;42;
62591;PMS5003;48659;41.622;2.276;2023-12-20T10:44:59;61;50;
62591;PMS5003;48659;41.622;2.276;2023-12-20T10:47:26;55;45;
62591;PMS5003;48659;41.622;2.276;2023-12-20T10:49:57;51;43;
62591;PMS5003;48659;41.622;2.276;2023-12-20T10:52:27;53;45;
62591;PMS5003;48659;41.622;2.276;2023-12-20T10:54:56;43;41;
62591;PMS5003;48659;41.622;2.276;2023-12-20T10:57:23;52;49;
62591;PMS5003;48659;41.622;2.276;2023-12-20T10:59:57;57;43;
62591;PMS5003;48659;41.622;2.276;2023-12-20T11:02:28;43;40;
62591;PMS5003;48659;41.622;2.276;2023-12-20T11:04:59;52;50;
62591;PMS5003;48659;41.622;2.276;2023-12-20T11:07:38;52;43;
62591;PMS5003;48659;41.622;2.276;2023-12-20T11:10:16;45;41;
62591;PMS5003;48659;41.622;2.276;2023-12-20T11:12:57;48;39;
62591;PMS5003;48659;41.622;2.276;2023-12-20T11:15:32;51;41;
62591;PMS5003;48659;41.622;2.276;2023-12-20T11:17:59;44;36;
62591;PMS5003;48659;41.622;2.276;2023-12-20T11:20:35;42;38;
62591;PMS5003;48659;41.622;2.276;2023-12-20T11:23:03;46;39;
62591;PMS5003;48659;41.622;2.276;2023-12-20T11:25:35;48;37;
62591;PMS5003;48659;41.622;2.276;2023-12-20T11:28:14;38;35;
62591;PMS5003;48659;41.622;2.276;2023-12-20T11:30:42;41;34;
62591;PMS5003;48659;41.622;2.276;2023-12-20T11:33:12;52;40;
62591;PMS5003;48659;41.622;2.276;2023-12-20T11:35:40;43;37;
62591;PMS5003;48659;41.622;2.276;2023-12-20T11:38:09;40;39;
62591;PMS5003;48659;41.622;2.276;2023-12-20T11:40:37;43;36;
62591;PMS5003;48659;41.622;2.276;2023-12-20T11:43:04;41;36;
62591;PMS5003;48659;41.622;2.276;2023-12-20T11:45:31;38;35;
62591;PMS5003;48659;41.622;2.276;2023-12-20T11:48:00;47;43;
62591;PMS5003;48659;41.622;2.276;2023-12-20T11:50:29;47;40;
62591;PMS5003;48659;41.622;2.276;2023-12-20T11:52:57;51;42;
62591;PMS5003;48659;41.622;2.276;2023-12-20T11:55:24;46;34;
62591;PMS5003;48659;41.622;2.276;2023-12-20T11:57:52;48;39;
62591;PMS5003;48659;41.622;2.276;2023-12-20T12:00:20;42;36;
62591;PMS5003;48659;41.622;2.276;2023-12-20T12:03:02;46;39;
62591;PMS5003;48659;41.622;2.276;2023-12-20T12:05:30;45;42;
62591;PMS5003;48659;41.622;2.276;2023-12-20T12:07:58;47;45;
62591;PMS5003;48659;41.622;2.276;2023-12-20T12:10:25;40;37;
62591;PMS5003;48659;41.622;2.276;2023-12-20T12:12:57;41;40;
62591;PMS5003;48659;41.622;2.276;2023-12-20T12:15:25;43;42;
62591;PMS5003;48659;41.622;2.276;2023-12-20T12:17:57;44;42;
62591;PMS5003;48659;41.622;2.276;2023-12-20T12:20:25;45;43;
62591;PMS5003;48659;41.622;2.276;2023-12-20T12:22:57;50;42;
62591;PMS5003;48659;41.622;2.276;2023-12-20T12:25:26;43;42;
62591;PMS5003;48659;41.622;2.276;2023-12-20T12:27:53;44;44;
62591;PMS5003;48659;41.622;2.276;2023-12-20T12:30:21;57;49;
62591;PMS5003;48659;41.622;2.276;2023-12-20T12:32:48;54;44;
62591;PMS5003;48659;41.622;2.276;2023-12-20T12:35:16;49;40;
62591;PMS5003;48659;41.622;2.276;2023-12-20T12:37:44;46;43;
62591;PMS5003;48659;41.622;2.276;2023-12-20T12:40:12;48;44;
62591;PMS5003;48659;41.622;2.276;2023-12-20T12:42:42;50;43;
62591;PMS5003;48659;41.622;2.276;2023-12-20T12:45:10;54;45;
62591;PMS5003;48659;41.622;2.276;2023-12-20T12:47:38;45;41;
62591;PMS5003;48659;41.622;2.276;2023-12-20T12:50:06;48;43;
62591;PMS5003;48659;41.622;2.276;2023-12-20T12:52:34;47;41;
62591;PMS5003;48659;41.622;2.276;2023-12-20T12:55:02;53;50;
62591;PMS5003;48659;41.622;2.276;2023-12-20T12:57:30;51;45;
62591;PMS5003;48659;41.622;2.276;2023-12-20T12:59:58;60;50;
62591;PMS5003;48659;41.622;2.276;2023-12-20T13:02:26;44;41;
62591;PMS5003;48659;41.622;2.276;2023-12-20T13:04:54;53;45;
62591;PMS5003;48659;41.622;2.276;2023-12-20T13:07:21;52;45;
62591;PMS5003;48659;41.622;2.276;2023-12-20T13:09:57;56;42;
62591;PMS5003;48659;41.622;2.276;2023-12-20T13:12:25;43;40;
62591;PMS5003;48659;41.622;2.276;2023-12-20T13:14:56;41;39;
62591;PMS5003;48659;41.622;2.276;2023-12-20T13:17:24;49;44;
62591;PMS5003;48659;41.622;2.276;2023-12-20T13:19:51;38;37;
62591;PMS5003;48659;41.622;2.276;2023-12-20T13:22:19;43;36;
62591;PMS5003;48659;41.622;2.276;2023-12-20T13:24:47;41;35;
62591;PMS5003;48659;41.622;2.276;2023-12-20T13:27:15;39;32;
62591;PMS5003;48659;41.622;2.276;2023-12-20T13:29:42;41;36;
62591;PMS5003;48659;41.622;2.276;2023-12-20T13:32:09;36;33;
62591;PMS5003;48659;41.622;2.276;2023-12-20T13:34:36;43;39;
62591;PMS5003;48659;41.622;2.276;2023-12-20T13:37:04;41;32;
62591;PMS5003;48659;41.622;2.276;2023-12-20T13:39:31;40;34;
62591;PMS5003;48659;41.622;2.276;2023-12-20T13:41:59;38;33;
62591;PMS5003;48659;41.622;2.276;2023-12-20T13:44:26;38;36;
62591;PMS5003;48659;41.622;2.276;2023-12-20T13:46:53;42;34;
62591;PMS5003;48659;41.622;2.276;2023-12-20T13:49:20;37;31;
62591;PMS5003;48659;41.622;2.276;2023-12-20T13:52:02;38;35;
62591;PMS5003;48659;41.622;2.276;2023-12-20T13:54:30;38;34;
62591;PMS5003;48659;41.622;2.276;2023-12-20T13:56:57;31;27;
62591;PMS5003;48659;41.622;2.276;2023-12-20T13:59:26;36;33;
62591;PMS5003;48659;41.622;2.276;2023-12-20T14:01:55;34;31;
62591;PMS5003;48659;41.622;2.276;2023-12-20T14:04:23;37;32;
62591;PMS5003;48659;41.622;2.276;2023-12-20T14:06:50;43;33;
62591;PMS5003;48659;41.622;2.276;2023-12-20T14:09:18;34;32;
62591;PMS5003;48659;41.622;2.276;2023-12-20T14:11:45;34;30;
62591;PMS5003;48659;41.622;2.276;2023-12-20T14:14:12;33;30;
62591;PMS5003;48659;41.622;2.276;2023-12-20T14:16:40;35;29;
62591;PMS5003;48659;41.622;2.276;2023-12-20T14:19:07;31;26;
62591;PMS5003;48659;41.622;2.276;2023-12-20T14:21:35;30;30;
62591;PMS5003;48659;41.622;2.276;2023-12-20T14:24:03;34;24;
62591;PMS5003;48659;41.622;2.276;2023-12-20T14:26:31;34;30;
62591;PMS5003;48659;41.622;2.276;2023-12-20T14:28:59;32;29;
62591;PMS5003;48659;41.622;2.276;2023-12-20T14:31:26;37;34;
62591;PMS5003;48659;41.622;2.276;2023-12-20T14:33:57;35;31;
62591;PMS5003;48659;41.622;2.276;2023-12-20T14:36:24;38;32;
62591;PMS5003;48659;41.622;2.276;2023-12-20T14:38:52;36;34;
62591;PMS5003;48659;41.622;2.276;2023-12-20T14:41:20;44;37;
62591;PMS5003;48659;41.622;2.276;2023-12-20T14:43:47;39;33;
62591;PMS5003;48659;41.622;2.276;2023-12-20T14:46:28;35;28;
62591;PMS5003;48659;41.622;2.276;2023-12-20T14:48:57;37;34;
62591;PMS5003;48659;41.622;2.276;2023-12-20T14:51:24;39;35;
62591;PMS5003;48659;41.622;2.276;2023-12-20T14:53:57;39;32;
62591;PMS5003;48659;41.622;2.276;2023-12-20T14:56:25;40;36;
62591;PMS5003;48659;41.622;2.276;2023-12-20T14:58:56;47;38;
62591;PMS5003;48659;41.622;2.276;2023-12-20T15:01:24;44;32;
62591;PMS5003;48659;41.622;2.276;2023-12-20T15:03:57;34;33;
62591;PMS5003;48659;41.622;2.276;2023-12-20T15:06:24;40;38;
62591;PMS5003;48659;41.622;2.276;2023-12-20T15:08:51;47;41;
62591;PMS5003;48659;41.622;2.276;2023-12-20T15:11:19;35;29;
62591;PMS5003;48659;41.622;2.276;2023-12-20T15:13:46;38;35;
62591;PMS5003;48659;41.622;2.276;2023-12-20T15:16:14;36;35;
62591;PMS5003;48659;41.622;2.276;2023-12-20T15:18:41;37;32;
62591;PMS5003;48659;41.622;2.276;2023-12-20T15:21:09;32;32;
62591;PMS5003;48659;41.622;2.276;2023-12-20T15:23:36;47;39;
62591;PMS5003;48659;41.622;2.276;2023-12-20T15:26:03;38;36;
62591;PMS5003;48659;41.622;2.276;2023-12-20T15:28:31;37;35;
62591;PMS5003;48659;41.622;2.276;2023-12-20T15:30:59;45;36;
62591;PMS5003;48659;41.622;2.276;2023-12-20T15:33:27;40;35;
62591;PMS5003;48659;41.622;2.276;2023-12-20T15:35:57;37;34;
62591;PMS5003;48659;41.622;2.276;2023-12-20T15:38:25;40;35;
62591;PMS5003;48659;41.622;2.276;2023-12-20T15:40:57;38;33;
62591;PMS5003;48659;41.622;2.276;2023-12-20T15:43:25;38;35;
62591;PMS5003;48659;41.622;2.276;2023-12-20T15:45:57;49;38;
62591;PMS5003;48659;41.622;2.276;2023-12-20T15:48:24;43;35;
62591;PMS5003;48659;41.622;2.276;2023-12-20T15:51:04;44;37;
62591;PMS5003;48659;41.622;2.276;2023-12-20T15:53:31;39;36;
62591;PMS5003;48659;41.622;2.276;2023-12-20T15:55:59;43;38;
62591;PMS5003;48659;41.622;2.276;2023-12-20T15:58:26;45;36;
62591;PMS5003;48659;41.622;2.276;2023-12-20T16:00:57;39;36;
62591;PMS5003;48659;41.622;2.276;2023-12-20T16:03:25;42;37;
62591;PMS5003;48659;41.622;2.276;2023-12-20T16:05:57;51;45;
62591;PMS5003;48659;41.622;2.276;2023-12-20T16:08:25;51;46;
62591;PMS5003;48659;41.622;2.276;2023-12-20T16:10:52;50;45;
62591;PMS5003;48659;41.622;2.276;2023-12-20T16:13:19;51;46;
62591;PMS5003;48659;41.622;2.276;2023-12-20T16:15:46;55;45;
62591;PMS5003;48659;41.622;2.276;2023-12-20T16:18:14;45;43;
62591;PMS5003;48659;41.622;2.276;2023-12-20T16:20:41;45;40;
62591;PMS5003;48659;41.622;2.276;2023-12-20T16:23:09;41;35;
62591;PMS5003;48659;41.622;2.276;2023-12-20T16:25:36;46;42;
62591;PMS5003;48659;41.622;2.276;2023-12-20T16:28:05;52;43;